Time;durP1;ratioP1;P1;durP2;ratioP2;P2;SDS_P1;SDS_P2;PMS_P1;PMS_P2;Temp;Humidity;BMP_temperature;BMP_pressure;BME280_temperature;BME280_humidity;BME280_pressure;Samples;Min_cycle;Max_cycle;Signal;HPM_P1;HPM_P2
2021/11/20 00:00:27;;;;;;;1.95;1.85;;;10.90;99.90;;;;;;5056834;28;20265;-79
2021/11/20 00:02:54;;;;;;;1.80;1.38;;;10.90;99.90;;;;;;5057882;28;20206;-79
2021/11/20 00:05:25;;;;;;;0.80;0.65;;;10.90;99.90;;;;;;5057147;28;20203;-79
2021/11/20 00:07:53;;;;;;;1.63;1.53;;;10.90;99.90;;;;;;5057484;28;20179;-79
2021/11/20 00:10:23;;;;;;;0.50;0.50;;;10.90;99.90;;;;;;5056598;28;20469;-81
2021/11/20 00:12:50;;;;;;;0.40;0.40;;;10.90;99.90;;;;;;5056684;28;20487;-79
2021/11/20 00:15:23;;;;;;;1.27;1.27;;;10.90;99.90;;;;;;5056106;28;20202;-79
2021/11/20 00:17:51;;;;;;;0.50;0.40;;;10.80;99.90;;;;;;5056862;28;20437;-79
2021/11/20 00:20:20;;;;;;;2.17;2.08;;;10.80;99.90;;;;;;5055926;28;20223;-79
2021/11/20 00:22:49;;;;;;;2.93;1.07;;;10.80;99.90;;;;;;5056738;28;20195;-79
2021/11/20 00:25:24;;;;;;;0.60;0.60;;;10.80;99.90;;;;;;5056644;28;20437;-79
2021/11/20 00:27:54;;;;;;;0.40;0.40;;;10.80;99.90;;;;;;5056728;28;20435;-79
2021/11/20 00:30:24;;;;;;;2.58;2.38;;;10.80;99.90;;;;;;5056957;28;20552;-79
2021/11/20 00:32:55;;;;;;;1.07;1.07;;;10.80;99.90;;;;;;5056491;28;20221;-78
2021/11/20 00:35:24;;;;;;;0.60;0.60;;;10.70;99.90;;;;;;5057307;28;20790;-79
2021/11/20 00:37:52;;;;;;;1.70;1.50;;;10.70;99.90;;;;;;5056251;28;20448;-79
2021/11/20 00:40:21;;;;;;;3.67;3.33;;;10.80;99.90;;;;;;5056248;28;20822;-79
2021/11/20 00:42:48;;;;;;;1.33;1.33;;;10.80;99.90;;;;;;5056322;28;20433;-80
2021/11/20 00:45:15;;;;;;;1.40;1.30;;;10.80;99.90;;;;;;5056212;28;20456;-79
2021/11/20 00:47:42;;;;;;;0.50;0.40;;;10.80;99.90;;;;;;5056660;28;20802;-79
2021/11/20 00:50:14;;;;;;;0.50;0.50;;;10.80;99.90;;;;;;5056189;28;20465;-79
2021/11/20 00:52:41;;;;;;;1.20;1.10;;;10.70;99.90;;;;;;5056593;28;20519;-79
2021/11/20 00:55:12;;;;;;;4.20;3.42;;;10.70;99.90;;;;;;5056352;28;20446;-79
2021/11/20 00:57:39;;;;;;;2.90;2.70;;;10.70;99.90;;;;;;5056394;28;20190;-78
2021/11/20 01:00:07;;;;;;;10.03;3.13;;;10.70;99.90;;;;;;5055784;28;20532;-80
2021/11/20 01:02:34;;;;;;;5.60;2.47;;;10.70;99.90;;;;;;5056288;28;20440;-79
2021/11/20 01:05:01;;;;;;;1.33;1.33;;;10.70;99.90;;;;;;5056265;28;20521;-79
2021/11/20 01:07:29;;;;;;;0.68;0.68;;;10.70;99.90;;;;;;5055685;28;20471;-79
2021/11/20 01:09:55;;;;;;;0.70;0.70;;;10.70;99.90;;;;;;5055345;28;20226;-79
2021/11/20 01:12:25;;;;;;;0.43;0.30;;;10.70;99.90;;;;;;5055579;28;20479;-79
2021/11/20 01:14:53;;;;;;;1.33;0.87;;;10.70;99.90;;;;;;5055651;28;20472;-80
2021/11/20 01:17:23;;;;;;;10.77;4.73;;;10.70;99.90;;;;;;5056741;28;20449;-79
2021/11/20 01:19:50;;;;;;;2.17;2.03;;;10.70;99.90;;;;;;5055844;28;20461;-79
2021/11/20 01:22:19;;;;;;;1.77;1.30;;;10.60;99.90;;;;;;5055681;28;20197;-79
2021/11/20 01:24:47;;;;;;;6.15;3.78;;;10.60;99.90;;;;;;5055793;28;20197;-78
2021/11/20 01:27:15;;;;;;;7.35;1.85;;;10.60;99.90;;;;;;5055685;28;20229;-79
2021/11/20 01:29:42;;;;;;;2.55;2.47;;;10.60;99.90;;;;;;5054808;28;20222;-78
2021/11/20 01:32:10;;;;;;;0.60;0.60;;;10.60;99.90;;;;;;5055270;28;20656;-78
2021/11/20 01:34:37;;;;;;;0.82;0.82;;;10.60;99.90;;;;;;5055647;28;20197;-78
2021/11/20 01:37:06;;;;;;;1.88;1.77;;;10.60;99.90;;;;;;5054906;28;20195;-79
2021/11/20 01:39:35;;;;;;;3.00;2.78;;;10.60;99.90;;;;;;5055106;28;20230;-78
2021/11/20 01:42:10;;;;;;;3.72;3.53;;;10.60;99.90;;;;;;5056481;28;20199;-79
2021/11/20 01:44:40;;;;;;;1.73;1.63;;;10.60;99.90;;;;;;5056503;28;20663;-79
2021/11/20 01:47:13;;;;;;;0.60;0.60;;;10.60;99.90;;;;;;5055754;28;20198;-79
2021/11/20 01:49:42;;;;;;;0.97;0.97;;;10.60;99.90;;;;;;5055093;28;20222;-79
2021/11/20 01:52:17;;;;;;;7.55;1.70;;;10.60;99.90;;;;;;5056094;28;20433;-78
2021/11/20 01:55:01;;;;;;;3.63;2.97;;;10.60;99.90;;;;;;5055708;28;20194;-79
2021/11/20 01:57:34;;;;;;;6.73;5.17;;;10.60;99.90;;;;;;5060753;28;20198;-78
2021/11/20 02:00:11;;;;;;;0.43;0.40;;;10.60;99.90;;;;;;5054549;28;20811;-79
2021/11/20 02:02:44;;;;;;;1.08;1.08;;;10.50;99.90;;;;;;5054757;28;20191;-80
2021/11/20 02:05:14;;;;;;;0.63;0.63;;;10.50;99.90;;;;;;5054689;28;20200;-79
2021/11/20 02:07:45;;;;;;;4.40;1.98;;;10.50;99.90;;;;;;5055054;28;20913;-78
2021/11/20 02:10:17;;;;;;;1.75;1.05;;;10.50;99.90;;;;;;5054095;28;20225;-78
2021/11/20 02:12:49;;;;;;;2.38;0.95;;;10.50;99.90;;;;;;5054927;28;20298;-79
2021/11/20 02:15:35;;;;;;;0.93;0.93;;;10.50;99.90;;;;;;5054640;28;20289;-79
2021/11/20 02:18:03;;;;;;;2.08;1.58;;;10.50;99.90;;;;;;5054808;28;20701;-79
2021/11/20 02:20:35;;;;;;;0.55;0.55;;;10.50;99.90;;;;;;5054200;28;20217;-78
2021/11/20 02:23:02;;;;;;;0.75;0.75;;;10.50;99.90;;;;;;5054489;28;20198;-80
2021/11/20 02:25:28;;;;;;;3.13;2.10;;;10.50;99.90;;;;;;5054065;28;20194;-79
2021/11/20 02:27:58;;;;;;;0.68;0.68;;;10.50;99.90;;;;;;5054293;28;20206;-79
2021/11/20 02:30:29;;;;;;;1.85;1.35;;;10.50;99.90;;;;;;5054466;28;20234;-79
2021/11/20 02:32:58;;;;;;;3.28;3.08;;;10.50;99.90;;;;;;5053813;28;20211;-79
2021/11/20 02:35:29;;;;;;;3.08;2.05;;;10.50;99.90;;;;;;5054354;28;20199;-80
2021/11/20 02:37:56;;;;;;;8.82;3.20;;;10.50;99.90;;;;;;5054670;28;20200;-78
2021/11/20 02:40:23;;;;;;;0.90;0.90;;;10.40;99.90;;;;;;5053864;28;20221;-79
2021/11/20 02:42:50;;;;;;;1.75;1.65;;;10.40;99.90;;;;;;5054228;28;20190;-78
2021/11/20 02:45:26;;;;;;;3.35;3.15;;;10.40;99.90;;;;;;5054195;28;20206;-79
2021/11/20 02:47:55;;;;;;;2.50;1.48;;;10.40;99.90;;;;;;5054255;28;20250;-79
2021/11/20 02:50:32;;;;;;;0.85;0.85;;;10.40;99.90;;;;;;5053790;28;20215;-79
2021/11/20 02:52:59;;;;;;;1.85;1.65;;;10.40;99.90;;;;;;5054790;28;20202;-80
2021/11/20 02:55:26;;;;;;;1.65;0.95;;;10.40;99.90;;;;;;5053988;28;20205;-79
2021/11/20 02:57:53;;;;;;;0.40;0.40;;;10.40;99.90;;;;;;5054127;28;20195;-78
2021/11/20 03:00:21;;;;;;;0.50;0.40;;;10.40;99.90;;;;;;5053698;28;20579;-79
2021/11/20 03:02:49;;;;;;;3.35;3.08;;;10.40;99.90;;;;;;5053756;28;20709;-80
2021/11/20 03:05:19;;;;;;;0.50;0.40;;;10.40;99.90;;;;;;5054190;28;20686;-79
2021/11/20 03:07:46;;;;;;;0.50;0.43;;;10.40;99.90;;;;;;5054812;28;20205;-79
2021/11/20 03:10:13;;;;;;;1.73;1.63;;;10.40;99.90;;;;;;5053337;28;20464;-78
2021/11/20 03:12:40;;;;;;;4.13;3.83;;;10.40;99.90;;;;;;5054479;28;20444;-79
2021/11/20 03:15:10;;;;;;;0.85;0.85;;;10.40;99.90;;;;;;5053810;28;20201;-81
2021/11/20 03:17:37;;;;;;;5.25;1.85;;;10.40;99.90;;;;;;5054103;28;20690;-79
2021/11/20 03:20:05;;;;;;;5.35;3.05;;;10.40;99.90;;;;;;5054008;28;20575;-79
2021/11/20 03:22:36;;;;;;;1.65;1.55;;;10.40;99.90;;;;;;5054461;28;20571;-78
2021/11/20 03:25:05;;;;;;;0.88;0.88;;;10.30;99.90;;;;;;5053105;28;20202;-80
2021/11/20 03:27:32;;;;;;;4.15;1.45;;;10.30;99.90;;;;;;5054189;28;20194;-79
2021/11/20 03:29:59;;;;;;;0.70;0.70;;;10.30;99.90;;;;;;5053815;28;20220;-79
2021/11/20 03:32:25;;;;;;;0.65;0.63;;;10.30;99.90;;;;;;5054046;28;20199;-78
2021/11/20 03:34:53;;;;;;;0.88;0.88;;;10.30;99.90;;;;;;5053402;28;20219;-78
2021/11/20 03:37:22;;;;;;;0.60;0.60;;;10.30;99.90;;;;;;5053949;28;20659;-78
2021/11/20 03:39:53;;;;;;;0.68;0.68;;;10.30;99.90;;;;;;5054138;28;20214;-78
2021/11/20 03:42:21;;;;;;;0.60;0.60;;;10.30;99.90;;;;;;5053993;28;20182;-78
2021/11/20 03:44:48;;;;;;;1.77;1.63;;;10.30;99.90;;;;;;5054329;28;20571;-78
2021/11/20 03:47:15;;;;;;;0.73;0.73;;;10.40;99.90;;;;;;5054197;28;20433;-79
2021/11/20 03:49:43;;;;;;;4.60;2.95;;;10.40;99.90;;;;;;5054014;28;20222;-79
2021/11/20 03:52:11;;;;;;;3.50;3.15;;;10.40;99.90;;;;;;5056953;28;20676;-79
2021/11/20 03:54:37;;;;;;;0.98;0.98;;;10.30;99.90;;;;;;5057935;28;20218;-77
2021/11/20 03:57:07;;;;;;;3.72;3.20;;;10.30;99.90;;;;;;5057903;28;20225;-77
2021/11/20 03:59:35;;;;;;;1.35;1.25;;;10.40;99.90;;;;;;5058459;28;20219;-77
2021/11/20 04:02:01;;;;;;;4.00;3.65;;;10.30;99.90;;;;;;5058501;28;20689;-79
2021/11/20 04:04:29;;;;;;;1.00;1.00;;;10.30;99.90;;;;;;5068750;28;20194;-78
2021/11/20 04:06:55;;;;;;;0.60;0.60;;;10.30;99.90;;;;;;5071066;28;20674;-78
2021/11/20 04:09:23;;;;;;;1.13;0.93;;;10.40;99.90;;;;;;5070930;28;20236;-78
2021/11/20 04:11:50;;;;;;;4.13;3.78;;;10.40;99.90;;;;;;5070260;28;20190;-77
2021/11/20 04:14:21;;;;;;;0.50;0.40;;;10.40;99.90;;;;;;5065954;28;20218;-79
2021/11/20 04:16:49;;;;;;;3.55;1.40;;;10.40;99.90;;;;;;5066521;28;20519;-78
2021/11/20 04:19:15;;;;;;;0.97;0.97;;;10.50;99.90;;;;;;5059223;28;20222;-78
2021/11/20 04:21:43;;;;;;;0.40;0.30;;;10.40;99.90;;;;;;5060302;28;20456;-79
2021/11/20 04:24:11;;;;;;;0.50;0.40;;;10.40;99.90;;;;;;5057965;28;20217;-79
2021/11/20 04:26:38;;;;;;;0.50;0.40;;;10.50;99.90;;;;;;5060076;28;20205;-77
2021/11/20 04:29:05;;;;;;;1.67;1.58;;;10.50;99.90;;;;;;5060600;28;20225;-78
2021/11/20 04:31:34;;;;;;;2.13;1.88;;;10.50;99.90;;;;;;5067505;28;20195;-78
2021/11/20 04:34:01;;;;;;;1.13;0.93;;;10.40;99.90;;;;;;5069538;28;20219;-78
2021/11/20 04:36:28;;;;;;;0.70;0.70;;;10.40;99.90;;;;;;5069345;28;20213;-78
2021/11/20 04:38:55;;;;;;;1.27;1.20;;;10.40;99.90;;;;;;5069548;28;20215;-79
2021/11/20 04:41:22;;;;;;;5.55;3.40;;;10.40;99.90;;;;;;5071701;28;20198;-78
2021/11/20 04:43:50;;;;;;;1.25;1.05;;;10.40;99.90;;;;;;5072312;28;20199;-78
2021/11/20 04:46:20;;;;;;;0.50;0.40;;;10.40;99.90;;;;;;5071829;28;20195;-79
2021/11/20 04:48:48;;;;;;;0.50;0.30;;;10.30;99.90;;;;;;5071577;28;20221;-78
2021/11/20 04:51:16;;;;;;;1.45;1.35;;;10.40;99.90;;;;;;5072459;28;20203;-78
2021/11/20 04:53:44;;;;;;;4.05;3.70;;;10.40;99.90;;;;;;5071870;28;20218;-79
2021/11/20 04:56:15;;;;;;;1.95;1.20;;;10.40;99.90;;;;;;5071733;28;20212;-79
2021/11/20 04:58:43;;;;;;;0.50;0.40;;;10.30;99.90;;;;;;5071785;28;20690;-78
2021/11/20 05:01:11;;;;;;;2.33;2.13;;;10.30;99.90;;;;;;5071981;28;20199;-78
2021/11/20 05:03:39;;;;;;;0.50;0.40;;;10.30;99.90;;;;;;5072165;28;20181;-79
2021/11/20 05:06:08;;;;;;;3.67;3.40;;;10.30;99.90;;;;;;5071973;28;20213;-78
2021/11/20 05:08:35;;;;;;;0.50;0.30;;;10.30;99.90;;;;;;5071690;28;20698;-77
2021/11/20 05:11:01;;;;;;;1.25;1.17;;;10.30;99.90;;;;;;5094964;22;20721;-80
2021/11/20 05:13:29;;;;;;;0.65;0.65;;;10.30;99.90;;;;;;5082064;28;20224;-81
2021/11/20 05:15:57;;;;;;;0.47;0.40;;;10.30;99.90;;;;;;5085473;28;20334;-81
2021/11/20 05:18:25;;;;;;;2.15;2.05;;;10.30;99.90;;;;;;5084760;28;20198;-81
2021/11/20 05:20:52;;;;;;;0.90;0.90;;;10.40;99.90;;;;;;5084358;28;20218;-79
2021/11/20 05:23:20;;;;;;;1.95;1.02;;;10.40;99.90;;;;;;5085742;28;20681;-81
2021/11/20 05:25:48;;;;;;;8.07;4.30;;;10.40;99.90;;;;;;5085167;28;20255;-80
2021/11/20 05:28:16;;;;;;;2.78;1.85;;;10.40;99.90;;;;;;5086165;28;20194;-80
2021/11/20 05:30:44;;;;;;;5.43;3.13;;;10.30;99.90;;;;;;5085076;28;20245;-77
2021/11/20 05:33:14;;;;;;;0.50;0.40;;;10.30;99.90;;;;;;5084417;28;20301;-81
2021/11/20 05:35:42;;;;;;;5.87;3.80;;;10.30;99.90;;;;;;5085066;28;20193;-80
2021/11/20 05:38:09;;;;;;;1.08;1.02;;;10.30;99.90;;;;;;5084305;28;20458;-80
2021/11/20 05:40:38;;;;;;;7.78;3.10;;;10.30;99.90;;;;;;5084393;28;20786;-79
2021/11/20 05:43:08;;;;;;;3.53;3.33;;;10.30;99.90;;;;;;5084552;28;20200;-80
2021/11/20 05:45:38;;;;;;;1.77;1.77;;;10.30;99.90;;;;;;5085469;28;20220;-80
2021/11/20 05:48:06;;;;;;;3.22;2.05;;;10.30;99.90;;;;;;5084004;28;20191;-80
2021/11/20 05:50:34;;;;;;;0.63;0.63;;;10.30;99.90;;;;;;5085027;28;20223;-80
2021/11/20 05:53:01;;;;;;;3.08;2.80;;;10.30;99.90;;;;;;5084401;28;20265;-81
2021/11/20 05:55:30;;;;;;;1.45;1.38;;;10.30;99.90;;;;;;5084359;28;20577;-81
2021/11/20 05:57:59;;;;;;;16.08;6.97;;;10.30;99.90;;;;;;5084197;28;20205;-80
2021/11/20 06:00:28;;;;;;;1.58;1.48;;;10.30;99.90;;;;;;5084195;28;20221;-80
2021/11/20 06:02:58;;;;;;;9.77;4.47;;;10.30;99.90;;;;;;5084192;28;20197;-81
2021/11/20 06:05:26;;;;;;;1.90;1.80;;;10.30;99.90;;;;;;5084509;28;20186;-81
2021/11/20 06:07:53;;;;;;;4.32;2.72;;;10.30;99.90;;;;;;5084337;28;20515;-76
2021/11/20 06:10:21;;;;;;;3.55;3.30;;;10.30;99.90;;;;;;5083629;28;20221;-81
2021/11/20 06:12:48;;;;;;;0.50;0.40;;;10.30;99.90;;;;;;5083897;28;20201;-79
2021/11/20 06:15:17;;;;;;;0.50;0.47;;;10.30;99.90;;;;;;5084322;28;20217;-80
2021/11/20 06:17:44;;;;;;;1.15;1.15;;;10.30;99.90;;;;;;5084060;28;20202;-80
2021/11/20 06:20:12;;;;;;;0.50;0.40;;;10.30;99.90;;;;;;5084039;28;20705;-81
2021/11/20 06:22:39;;;;;;;0.50;0.40;;;10.30;99.90;;;;;;5084088;28;20202;-80
2021/11/20 06:25:09;;;;;;;0.98;0.98;;;10.30;99.90;;;;;;5083694;28;20205;-81
2021/11/20 06:27:36;;;;;;;0.50;0.30;;;10.30;99.90;;;;;;5084430;28;20196;-81
2021/11/20 06:30:03;;;;;;;0.47;0.40;;;10.30;99.90;;;;;;5083994;28;20603;-80
2021/11/20 06:32:31;;;;;;;3.55;3.28;;;10.30;99.90;;;;;;5084477;28;20193;-81
2021/11/20 06:34:58;;;;;;;0.50;0.40;;;10.30;99.90;;;;;;5083480;28;20217;-81
2021/11/20 06:37:25;;;;;;;0.95;0.95;;;10.40;99.90;;;;;;5084666;28;20201;-81
2021/11/20 06:39:52;;;;;;;1.45;0.88;;;10.40;99.90;;;;;;5083208;28;20198;-80
2021/11/20 06:42:19;;;;;;;1.02;1.02;;;10.40;99.90;;;;;;5084339;28;20190;-80
2021/11/20 06:44:47;;;;;;;0.70;0.70;;;10.50;99.90;;;;;;5084393;28;20201;-80
2021/11/20 06:47:14;;;;;;;0.88;0.85;;;10.50;99.90;;;;;;5084750;28;20488;-78
2021/11/20 06:49:42;;;;;;;0.50;0.30;;;10.50;99.90;;;;;;5080128;28;20193;-80
2021/11/20 06:52:09;;;;;;;0.50;0.40;;;10.50;99.90;;;;;;5083730;28;20262;-80
2021/11/20 06:54:36;;;;;;;0.50;0.40;;;10.50;99.90;;;;;;5083578;28;20209;-80
2021/11/20 06:57:09;;;;;;;0.50;0.30;;;10.50;99.90;;;;;;5082298;28;20224;-80
2021/11/20 07:02:30;;;;;;;0.82;0.82;;;10.50;99.90;;;;;;5083534;28;20192;-81
2021/11/20 07:04:58;;;;;;;4.93;1.75;;;10.50;99.90;;;;;;5081850;28;20181;-80
2021/11/20 07:07:27;;;;;;;0.50;0.40;;;10.50;99.90;;;;;;5082665;28;20212;-80
2021/11/20 07:09:54;;;;;;;0.50;0.50;;;10.50;99.90;;;;;;5081554;28;20194;-79
2021/11/20 07:12:21;;;;;;;0.50;0.47;;;10.60;99.90;;;;;;5082082;28;20189;-80
2021/11/20 07:14:48;;;;;;;0.50;0.40;;;10.50;99.90;;;;;;5082762;28;20475;-81
2021/11/20 07:17:15;;;;;;;0.50;0.40;;;10.50;99.90;;;;;;5083028;28;20198;-80
2021/11/20 07:19:42;;;;;;;9.15;3.47;;;10.50;99.90;;;;;;5081988;28;20194;-79
2021/11/20 07:22:10;;;;;;;0.73;0.73;;;10.50;99.90;;;;;;5083073;28;20197;-80
2021/11/20 07:24:36;;;;;;;0.50;0.30;;;10.50;99.90;;;;;;5082610;28;20567;-79
2021/11/20 07:27:04;;;;;;;0.50;0.32;;;10.50;99.90;;;;;;5080944;28;20198;-79
2021/11/20 07:29:30;;;;;;;0.50;0.40;;;10.50;99.90;;;;;;5080864;28;20198;-80
2021/11/20 07:31:57;;;;;;;0.50;0.50;;;10.40;99.90;;;;;;5081129;28;20760;-79
2021/11/20 07:34:24;;;;;;;0.90;0.90;;;10.50;99.90;;;;;;5081355;28;20475;-79
2021/11/20 07:36:51;;;;;;;3.07;2.60;;;10.50;99.90;;;;;;5081254;28;20686;-80
2021/11/20 07:39:19;;;;;;;1.95;1.85;;;10.50;99.90;;;;;;5079127;28;20812;-79
2021/11/20 07:41:47;;;;;;;0.50;0.40;;;10.40;99.90;;;;;;5080436;28;20590;-76
2021/11/20 07:44:14;;;;;;;2.05;1.95;;;10.40;99.90;;;;;;5080535;28;20251;-79
2021/11/20 07:46:41;;;;;;;2.85;2.65;;;10.40;99.90;;;;;;5081144;28;20205;-80
2021/11/20 07:49:08;;;;;;;0.60;0.60;;;10.40;99.90;;;;;;5079759;28;20224;-80
2021/11/20 07:51:35;;;;;;;7.03;3.00;;;10.40;99.90;;;;;;5080539;28;20222;-79
2021/11/20 07:54:02;;;;;;;4.72;4.38;;;10.40;99.90;;;;;;5080274;28;20224;-81
2021/11/20 07:56:31;;;;;;;5.18;4.10;;;10.40;99.90;;;;;;5080103;28;20201;-79
2021/11/20 07:58:58;;;;;;;9.37;2.77;;;10.40;99.90;;;;;;5080091;28;20204;-77
2021/11/20 08:01:25;;;;;;;2.03;1.92;;;10.40;99.90;;;;;;5080726;28;20463;-80
2021/11/20 08:03:52;;;;;;;2.35;2.00;;;10.40;99.90;;;;;;5079613;28;20201;-78
2021/11/20 08:06:19;;;;;;;5.07;3.35;;;10.40;99.90;;;;;;5080627;28;20197;-79
2021/11/20 08:08:46;;;;;;;1.25;0.70;;;10.40;99.90;;;;;;5080171;28;20242;-79
2021/11/20 08:11:13;;;;;;;1.67;1.20;;;10.40;99.90;;;;;;5080231;28;20253;-79
2021/11/20 08:13:42;;;;;;;0.85;0.85;;;10.40;99.90;;;;;;5079539;28;20198;-79
2021/11/20 08:16:09;;;;;;;0.50;0.30;;;10.40;99.90;;;;;;5081313;28;20220;-79
2021/11/20 08:18:36;;;;;;;6.95;3.65;;;10.40;99.90;;;;;;5079903;28;20207;-80
2021/11/20 08:21:03;;;;;;;6.95;2.80;;;10.50;99.90;;;;;;5079901;28;20720;-80
2021/11/20 08:23:31;;;;;;;4.57;2.65;;;10.50;99.90;;;;;;5079529;28;20765;-79
2021/11/20 08:25:58;;;;;;;0.50;0.40;;;10.50;99.90;;;;;;5080166;28;20209;-79
2021/11/20 08:28:26;;;;;;;0.50;0.50;;;10.50;99.90;;;;;;5079882;28;20200;-79
2021/11/20 08:30:55;;;;;;;5.65;5.15;;;10.50;99.90;;;;;;5078924;28;20214;-79
2021/11/20 08:33:22;;;;;;;1.58;1.58;;;10.50;99.90;;;;;;5079060;28;20190;-79
2021/11/20 08:35:49;;;;;;;4.82;4.53;;;10.50;99.90;;;;;;5079193;28;20218;-79
2021/11/20 08:38:17;;;;;;;4.07;3.88;;;10.50;99.90;;;;;;5078950;28;20208;-79
2021/11/20 08:40:46;;;;;;;4.30;3.90;;;10.50;99.90;;;;;;5078714;28;20579;-75
2021/11/20 08:43:13;;;;;;;3.75;3.40;;;10.50;99.90;;;;;;5079527;28;20436;-79
2021/11/20 08:45:43;;;;;;;5.82;5.30;;;10.50;99.90;;;;;;5079545;28;20190;-79
2021/11/20 08:48:15;;;;;;;0.50;0.40;;;10.50;99.90;;;;;;5079479;28;20198;-79
2021/11/20 08:50:44;;;;;;;2.40;2.20;;;10.60;99.90;;;;;;5079578;28;20210;-79
2021/11/20 08:53:11;;;;;;;0.85;0.85;;;10.60;99.90;;;;;;5079019;28;20428;-79
2021/11/20 08:55:38;;;;;;;1.70;1.58;;;10.60;99.90;;;;;;5079329;28;20225;-80
2021/11/20 08:58:06;;;;;;;1.30;0.80;;;10.60;99.90;;;;;;5079847;28;20193;-78
2021/11/20 09:00:38;;;;;;;6.20;5.60;;;10.60;99.90;;;;;;5078207;28;20218;-78
2021/11/20 09:03:10;;;;;;;0.60;0.43;;;10.60;99.90;;;;;;5078855;28;20413;-79
2021/11/20 09:05:43;;;;;;;5.13;2.53;;;10.60;99.90;;;;;;5078659;28;20455;-78
2021/11/20 09:08:24;;;;;;;0.70;0.70;;;10.70;99.90;;;;;;5079735;28;20515;-79
2021/11/20 09:10:55;;;;;;;2.60;2.25;;;10.70;99.90;;;;;;5077843;28;20213;-78
2021/11/20 09:13:27;;;;;;;2.95;2.33;;;10.70;99.90;;;;;;5079126;28;20190;-79
2021/11/20 09:15:56;;;;;;;8.52;6.30;;;10.70;99.90;;;;;;5078503;28;20209;-78
2021/11/20 09:18:24;;;;;;;3.78;3.42;;;10.70;99.90;;;;;;5078028;28;20263;-79
2021/11/20 09:20:55;;;;;;;4.03;3.72;;;10.70;99.90;;;;;;5077199;28;20583;-78
2021/11/20 09:23:22;;;;;;;2.75;2.53;;;10.70;99.90;;;;;;5078666;28;20200;-79
2021/11/20 09:25:53;;;;;;;4.55;4.25;;;10.70;99.90;;;;;;5078504;28;20197;-79
2021/11/20 09:28:20;;;;;;;4.97;2.80;;;10.70;99.90;;;;;;5078779;28;20575;-78
2021/11/20 09:30:50;;;;;;;2.90;2.70;;;10.70;99.90;;;;;;5077377;28;20801;-79
2021/11/20 09:33:19;;;;;;;2.35;2.25;;;10.70;99.90;;;;;;5076922;28;20190;-79
2021/11/20 09:35:46;;;;;;;1.23;0.68;;;10.70;99.90;;;;;;5078037;28;20224;-78
2021/11/20 09:38:16;;;;;;;0.70;0.50;;;10.80;99.90;;;;;;5076686;28;20277;-78
2021/11/20 09:40:47;;;;;;;0.50;0.40;;;10.80;99.90;;;;;;5076114;28;20594;-78
2021/11/20 09:43:20;;;;;;;6.10;2.47;;;10.90;99.90;;;;;;5076462;28;20194;-78
2021/11/20 09:45:53;;;;;;;2.95;2.75;;;10.90;99.90;;;;;;5069064;28;20949;-78
2021/11/20 09:48:25;;;;;;;5.55;2.65;;;10.90;99.90;;;;;;5058933;28;20208;-78
2021/11/20 09:50:59;;;;;;;1.85;1.67;;;10.80;99.90;;;;;;5063706;28;20591;-78
2021/11/20 09:53:27;;;;;;;3.83;2.30;;;10.90;99.90;;;;;;5051417;28;20714;-77
2021/11/20 09:55:56;;;;;;;6.05;3.92;;;10.80;99.90;;;;;;5050773;28;20218;-77
2021/11/20 09:58:26;;;;;;;2.63;2.00;;;10.80;99.90;;;;;;5052473;28;20195;-78
2021/11/20 10:01:27;;;;;;;2.90;2.10;;;10.80;99.90;;;;;;5054738;28;20830;-77
2021/11/20 10:04:11;;;;;;;1.33;1.23;;;10.80;99.90;;;;;;5035611;28;20826;-79
2021/11/20 10:06:41;;;;;;;6.83;3.70;;;10.90;99.90;;;;;;5056800;28;20425;-79
2021/11/20 10:09:15;;;;;;;2.28;2.17;;;10.90;99.90;;;;;;5057886;28;20951;-76
2021/11/20 10:11:53;;;;;;;3.08;2.88;;;10.80;99.90;;;;;;5057070;28;20568;-78
2021/11/20 10:14:29;;;;;;;2.35;2.15;;;10.80;99.90;;;;;;5058253;28;20182;-78
2021/11/20 10:17:01;;;;;;;3.90;3.60;;;10.80;99.90;;;;;;5057831;28;20209;-78
2021/11/20 10:19:32;;;;;;;12.37;7.97;;;10.90;99.90;;;;;;5057097;28;20285;-79
2021/11/20 10:22:08;;;;;;;1.87;1.77;;;10.90;99.90;;;;;;5057231;28;20493;-79
2021/11/20 10:24:47;;;;;;;7.90;6.37;;;10.80;99.90;;;;;;5058084;28;20464;-79
2021/11/20 10:27:35;;;;;;;7.80;5.72;;;10.80;99.90;;;;;;5057500;28;20810;-79
2021/11/20 10:30:16;;;;;;;1.20;0.95;;;10.80;99.90;;;;;;5054665;28;20486;-79
2021/11/20 10:32:49;;;;;;;1.85;1.75;;;10.90;99.90;;;;;;5057191;28;20232;-79
2021/11/20 10:35:22;;;;;;;2.17;2.00;;;10.90;99.90;;;;;;5057833;28;20199;-79
2021/11/20 10:37:54;;;;;;;5.63;3.70;;;10.90;99.90;;;;;;5057055;28;20679;-79
2021/11/20 10:40:29;;;;;;;0.52;0.47;;;10.80;99.90;;;;;;5056219;28;20224;-78
2021/11/20 10:43:08;;;;;;;7.72;5.38;;;10.80;99.90;;;;;;5057683;28;20185;-80
2021/11/20 10:45:43;;;;;;;1.67;1.58;;;10.80;99.90;;;;;;5057349;28;20735;-80
2021/11/20 10:48:22;;;;;;;9.95;2.60;;;10.80;99.90;;;;;;5056980;28;20171;-80
2021/11/20 10:50:56;;;;;;;0.50;0.40;;;10.90;99.90;;;;;;5057320;28;20214;-78
2021/11/20 10:54:02;;;;;;;6.18;2.35;;;10.90;99.90;;;;;;5058231;28;20199;-78
2021/11/20 10:56:38;;;;;;;0.50;0.40;;;11.00;99.90;;;;;;5056644;28;20202;-80
2021/11/20 10:59:35;;;;;;;1.40;1.30;;;10.90;99.90;;;;;;5057262;28;20547;-79
2021/11/20 11:02:28;;;;;;;5.03;4.72;;;11.00;99.90;;;;;;5065360;28;20636;-79
2021/11/20 11:05:22;;;;;;;1.13;1.00;;;10.90;99.90;;;;;;5061722;28;20194;-79
2021/11/20 11:08:10;;;;;;;5.38;4.35;;;10.90;99.90;;;;;;5061967;28;20181;-79
2021/11/20 11:10:42;;;;;;;8.95;4.60;;;10.80;99.90;;;;;;5122570;22;20218;-74
2021/11/20 11:13:19;;;;;;;3.33;2.88;;;10.80;99.90;;;;;;5069226;28;20209;-78
2021/11/20 11:16:02;;;;;;;7.43;2.55;;;10.80;99.90;;;;;;5074709;28;20212;-77
2021/11/20 11:18:37;;;;;;;1.40;0.98;;;10.80;99.90;;;;;;5080550;28;20237;-78
2021/11/20 11:21:33;;;;;;;2.70;2.45;;;10.80;99.90;;;;;;5079875;28;20300;-78
2021/11/20 11:24:23;;;;;;;0.50;0.40;;;10.80;99.90;;;;;;5082151;28;20185;-79
2021/11/20 11:26:55;;;;;;;5.85;1.67;;;10.90;99.90;;;;;;5077417;28;20658;-78
2021/11/20 11:29:39;;;;;;;6.03;1.30;;;10.90;99.90;;;;;;5082809;28;20179;-79
2021/11/20 11:32:06;;;;;;;2.92;2.72;;;11.00;99.90;;;;;;5080840;28;20232;-78
2021/11/20 11:34:36;;;;;;;3.45;2.00;;;10.90;99.90;;;;;;5082330;28;20190;-78
2021/11/20 11:37:26;;;;;;;6.13;5.72;;;11.00;99.90;;;;;;5080663;28;20214;-78
2021/11/20 11:39:59;;;;;;;6.68;1.52;;;10.90;99.90;;;;;;5080838;28;20197;-78
2021/11/20 11:42:36;;;;;;;5.50;2.78;;;10.90;99.90;;;;;;5081326;28;20730;-78
2021/11/20 11:45:22;;;;;;;0.50;0.50;;;10.90;99.90;;;;;;5081548;28;20285;-79
2021/11/20 11:47:53;;;;;;;1.67;0.87;;;10.90;99.90;;;;;;5081699;28;20186;-78
2021/11/20 11:50:30;;;;;;;1.95;1.80;;;11.00;99.90;;;;;;5080323;28;20448;-79
2021/11/20 11:53:11;;;;;;;4.15;3.53;;;11.00;99.90;;;;;;5079918;28;20198;-78
2021/11/20 11:55:48;;;;;;;6.22;5.80;;;10.90;99.90;;;;;;5080184;28;20208;-78
2021/11/20 11:58:34;;;;;;;6.60;3.42;;;10.90;99.90;;;;;;5080284;28;20266;-79
2021/11/20 12:01:05;;;;;;;2.92;2.60;;;10.80;99.90;;;;;;5063586;28;20237;-79
2021/11/20 12:03:35;;;;;;;1.63;1.53;;;10.80;99.90;;;;;;5079899;28;20243;-78
2021/11/20 12:06:13;;;;;;;2.95;2.78;;;10.70;99.90;;;;;;5081260;28;20738;-79
2021/11/20 12:08:42;;;;;;;6.32;5.18;;;10.70;99.90;;;;;;5079609;28;20210;-78
2021/11/20 12:11:13;;;;;;;0.57;0.55;;;10.60;99.90;;;;;;5078476;28;20230;-79
2021/11/20 12:13:42;;;;;;;4.35;3.75;;;10.70;99.90;;;;;;5080431;28;20551;-79
2021/11/20 12:16:26;;;;;;;4.03;3.17;;;10.70;99.90;;;;;;5080140;28;20259;-78
2021/11/20 12:18:57;;;;;;;3.85;3.67;;;10.70;99.90;;;;;;5079862;28;20204;-79
2021/11/20 12:21:31;;;;;;;3.95;1.70;;;10.70;99.90;;;;;;5080889;28;20224;-79
2021/11/20 12:24:08;;;;;;;7.03;3.13;;;10.70;99.90;;;;;;5080385;28;20181;-78
2021/11/20 12:26:53;;;;;;;1.67;1.58;;;10.70;99.90;;;;;;5080204;28;20174;-79
2021/11/20 12:29:36;;;;;;;1.58;1.48;;;10.70;99.90;;;;;;5079491;28;20565;-79
2021/11/20 12:32:30;;;;;;;2.42;2.22;;;10.70;99.90;;;;;;5080171;28;20218;-79
2021/11/20 12:35:12;;;;;;;0.85;0.85;;;10.70;99.90;;;;;;5078739;28;20198;-79
2021/11/20 12:38:07;;;;;;;4.43;3.45;;;10.70;99.90;;;;;;5080695;28;20563;-80
2021/11/20 12:40:47;;;;;;;3.92;3.72;;;10.70;99.90;;;;;;5079405;28;20601;-79
2021/11/20 12:43:49;;;;;;;0.50;0.40;;;10.70;99.90;;;;;;5070813;28;20253;-79
2021/11/20 12:46:30;;;;;;;3.17;2.22;;;10.80;99.90;;;;;;5037176;28;20201;-79
2021/11/20 12:49:15;;;;;;;0.80;0.77;;;10.80;99.90;;;;;;5071862;28;20190;-79
2021/11/20 12:52:03;;;;;;;3.67;2.92;;;10.80;99.90;;;;;;5079198;28;20209;-80
2021/11/20 12:55:04;;;;;;;2.58;1.90;;;10.80;99.90;;;;;;5074060;28;20194;-79
2021/11/20 12:57:42;;;;;;;8.73;8.13;;;10.70;99.90;;;;;;4995431;28;20258;-79
2021/11/20 13:00:18;;;;;;;2.10;2.03;;;10.70;99.90;;;;;;5066208;28;20194;-79
2021/11/20 13:02:52;;;;;;;2.60;2.05;;;10.70;99.90;;;;;;5079178;28;20222;-80
2021/11/20 13:05:25;;;;;;;1.88;1.70;;;10.70;99.90;;;;;;5080495;28;20182;-80
2021/11/20 13:07:55;;;;;;;4.70;3.60;;;10.70;99.90;;;;;;5080177;28;20257;-79